createdAt,value
2022-10-15T00:01:35.455Z,97583.69
2022-10-15T00:04:37.660Z,97584.03
2022-10-15T00:07:41.320Z,97580.22
2022-10-15T00:10:43.384Z,97580.13
2022-10-15T00:13:45.623Z,97576.53
2022-10-15T00:16:47.657Z,97568.44
2022-10-15T00:19:49.696Z,97564.66
2022-10-15T00:22:51.731Z,97558.97
2022-10-15T00:26:35.952Z,97554.00
2022-10-15T00:29:38.671Z,97537.47
2022-10-15T00:32:40.835Z,97526.63
2022-10-15T00:35:42.922Z,97545.81
2022-10-15T00:38:45.197Z,97538.28
2022-10-15T00:41:47.262Z,97522.06
2022-10-15T00:44:58.473Z,97522.41
2022-10-15T00:48:00.602Z,97521.03
2022-10-15T00:51:02.688Z,97515.97
2022-10-15T00:54:04.870Z,97517.91
2022-10-15T00:57:07.946Z,97508.69
2022-10-15T01:00:12.672Z,97506.06
2022-10-15T01:03:14.983Z,97493.16
2022-10-15T01:06:17.086Z,97481.94
2022-10-15T01:09:19.196Z,97477.63
2022-10-15T01:12:42.865Z,97473.63
2022-10-15T01:16:04.865Z,97452.75
2022-10-15T01:20:00.423Z,97448.84
2022-10-15T01:23:29.992Z,97442.41
2022-10-15T01:27:10.205Z,97437.53
2022-10-15T01:30:21.011Z,97438.16
2022-10-15T01:33:53.595Z,97431.75
2022-10-15T01:37:37.316Z,97423.03
2022-10-15T01:40:50.534Z,97413.88
2022-10-15T01:44:24.554Z,97406.00
2022-10-15T01:48:12.304Z,97394.84
2022-10-15T01:51:14.407Z,97390.25
2022-10-15T01:54:18.094Z,97383.56
2022-10-15T01:57:20.787Z,97380.91
2022-10-15T02:00:23.153Z,97375.03
2022-10-15T02:03:25.214Z,97374.81
2022-10-15T02:06:39.262Z,97365.50
2022-10-15T02:10:05.801Z,97364.75
2022-10-15T02:13:22.621Z,97350.91
2022-10-15T02:16:54.818Z,97349.94
2022-10-15T02:20:07.194Z,97344.75
2022-10-15T02:23:19.725Z,97329.09
2022-10-15T02:26:25.375Z,97326.00
2022-10-15T02:29:31.771Z,97315.25
2022-10-15T02:32:34.200Z,97313.47
2022-10-15T02:35:36.268Z,97313.41
2022-10-15T02:38:42.994Z,97305.88
2022-10-15T02:41:45.118Z,97302.81
2022-10-15T02:44:48.566Z,97290.75
2022-10-15T02:47:50.601Z,97277.09
2022-10-15T02:50:53.773Z,97273.28
2022-10-15T02:53:56.118Z,97257.56
2022-10-15T02:56:58.178Z,97259.63
2022-10-15T03:00:00.307Z,97257.03
2022-10-15T03:03:02.907Z,97242.09
2022-10-15T03:06:06.148Z,97233.31
2022-10-15T03:09:08.428Z,97226.63
2022-10-15T03:12:10.551Z,97211.66
2022-10-15T03:15:12.619Z,97202.81
2022-10-15T03:18:14.768Z,97195.25
2022-10-15T03:21:16.885Z,97179.53
2022-10-15T03:24:19.760Z,97159.50
2022-10-15T03:27:22.055Z,97157.94
2022-10-15T03:30:24.479Z,97154.06
2022-10-15T03:33:27.130Z,97140.97
2022-10-15T03:36:30.511Z,97135.50
2022-10-15T03:39:32.599Z,97126.19
2022-10-15T03:42:37.930Z,97118.69
2022-10-15T03:45:40.127Z,97100.22
2022-10-15T03:48:52.363Z,97110.56
2022-10-15T03:51:55.574Z,97105.28
2022-10-15T03:54:59.198Z,97111.69
2022-10-15T03:58:01.374Z,97106.13
2022-10-15T04:01:10.014Z,97106.25
2022-10-15T04:04:13.013Z,97104.97
2022-10-15T04:07:15.354Z,97094.00
2022-10-15T04:10:17.658Z,97096.53
2022-10-15T04:13:19.756Z,97090.97
2022-10-15T04:16:21.921Z,97088.75
2022-10-15T04:19:24.241Z,97078.19
2022-10-15T04:22:34.631Z,97067.94
2022-10-15T04:25:37.654Z,97067.19
2022-10-15T04:28:39.913Z,97063.38
2022-10-15T04:31:42.476Z,97062.81
2022-10-15T04:34:46.440Z,97065.72
2022-10-15T04:37:49.426Z,97054.00
2022-10-15T04:41:07.965Z,97044.66
2022-10-15T04:44:24.029Z,97035.97
2022-10-15T04:47:30.842Z,97003.03
2022-10-15T04:50:44.583Z,97001.13
2022-10-15T04:53:56.928Z,96998.69
2022-10-15T04:56:59.185Z,96993.28
2022-10-15T05:00:02.644Z,96993.06
2022-10-15T05:03:07.778Z,96989.06
2022-10-15T05:06:21.955Z,96965.94
2022-10-15T05:09:29.091Z,96985.19
2022-10-15T05:12:33.208Z,96987.63
2022-10-15T05:15:35.272Z,96972.81
2022-10-15T05:18:41.694Z,96965.69
2022-10-15T05:21:44.122Z,96964.13
2022-10-15T05:24:57.186Z,96946.97
2022-10-15T05:28:07.237Z,96940.38
2022-10-15T05:31:18.820Z,96931.88
2022-10-15T05:34:21.474Z,96934.03
2022-10-15T05:37:29.029Z,96938.78
2022-10-15T05:40:31.270Z,96941.94
2022-10-15T05:43:54.149Z,96919.19
2022-10-15T05:47:00.545Z,96904.00
2022-10-15T05:50:03.890Z,96898.97
2022-10-15T05:53:15.179Z,96883.13
2022-10-15T05:56:20.260Z,96878.66
2022-10-15T05:59:22.452Z,96869.19
2022-10-15T06:02:24.913Z,96877.38
2022-10-15T06:05:27.286Z,96885.53
2022-10-15T06:08:30.512Z,96883.44
2022-10-15T06:11:32.618Z,96872.88
2022-10-15T06:14:34.731Z,96833.84
2022-10-15T06:17:37.768Z,96826.78
2022-10-15T06:20:40.457Z,96843.13
2022-10-15T06:23:42.591Z,96850.22
2022-10-15T06:26:44.619Z,96849.19
2022-10-15T06:29:51.756Z,96826.22
2022-10-15T06:32:53.987Z,96823.09
2022-10-15T06:35:56.250Z,96837.03
2022-10-15T06:38:58.317Z,96836.53
2022-10-15T06:42:00.404Z,96827.25
2022-10-15T06:45:15.789Z,96833.91
2022-10-15T06:48:20.276Z,96829.16
2022-10-15T06:51:22.331Z,96827.81
2022-10-15T06:54:25.755Z,96827.56
2022-10-15T06:57:28.518Z,96823.31
2022-10-15T07:03:42.640Z,96835.19
2022-10-15T07:06:44.718Z,96827.53
2022-10-15T07:09:47.569Z,96822.28
2022-10-15T07:12:49.674Z,96833.59
2022-10-15T07:15:54.141Z,96831.19
2022-10-15T07:18:56.362Z,96825.47
2022-10-15T07:21:58.407Z,96800.66
2022-10-15T07:25:00.446Z,96750.22
2022-10-15T07:28:02.511Z,96775.31
2022-10-15T07:31:06.246Z,96794.97
2022-10-15T07:34:08.398Z,96807.09
2022-10-15T07:37:10.414Z,96789.63
2022-10-15T07:40:12.834Z,96785.47
2022-10-15T07:43:16.753Z,96772.00
2022-10-15T07:46:18.817Z,96772.22
2022-10-15T07:49:20.881Z,96780.69
2022-10-15T07:52:23.236Z,96782.25
2022-10-15T07:55:25.544Z,96777.75
2022-10-15T07:58:28.702Z,96773.28
2022-10-15T08:01:32.350Z,96784.00
2022-10-15T08:04:35.167Z,96781.72
2022-10-15T08:07:37.505Z,96796.59
2022-10-15T08:10:47.178Z,96793.56
2022-10-15T08:13:49.461Z,96789.00
2022-10-15T08:16:51.539Z,96784.84
2022-10-15T08:19:53.662Z,96788.59
2022-10-15T08:22:55.749Z,96792.09
2022-10-15T08:25:59.512Z,96804.72
2022-10-15T08:29:01.902Z,96802.25
2022-10-15T08:32:04.234Z,96795.84
2022-10-15T08:35:07.221Z,96795.81
2022-10-15T08:38:12.607Z,96796.91
2022-10-15T08:41:56.439Z,96782.47
2022-10-15T08:45:01.218Z,96783.66
2022-10-15T08:48:12.838Z,96776.16
2022-10-15T08:51:26.742Z,96779.63
2022-10-15T08:54:28.747Z,96783.06
2022-10-15T08:57:40.323Z,96794.16
2022-10-15T09:00:58.438Z,96803.00
2022-10-15T09:07:43.485Z,96811.75
2022-10-15T09:10:53.183Z,96831.88
2022-10-15T09:13:55.383Z,96823.91
2022-10-15T09:16:58.439Z,96829.78
2022-10-15T09:20:05.633Z,96829.34
2022-10-15T09:23:16.541Z,96832.63
2022-10-15T09:26:35.957Z,96830.16
2022-10-15T09:29:46.753Z,96828.69
2022-10-15T09:33:25.250Z,96826.41
2022-10-15T09:36:51.011Z,96845.72
2022-10-15T09:40:28.479Z,96850.75
2022-10-15T09:43:38.082Z,96838.75
2022-10-15T09:46:48.526Z,96844.19
2022-10-15T09:49:50.758Z,96853.66
2022-10-15T09:53:27.437Z,96867.19
2022-10-15T09:56:55.475Z,96863.81
2022-10-15T10:00:01.361Z,96865.19
2022-10-15T10:03:11.765Z,96876.94
2022-10-15T10:06:14.457Z,96879.59
2022-10-15T10:09:25.986Z,96869.50
2022-10-15T10:12:35.193Z,96892.63
2022-10-15T10:15:41.248Z,96883.78
2022-10-15T10:18:50.479Z,96887.38
2022-10-15T10:21:52.558Z,96899.97
2022-10-15T10:24:54.601Z,96893.19
2022-10-15T10:28:14.531Z,96898.44
2022-10-15T10:31:16.615Z,96891.44
2022-10-15T10:34:29.980Z,96911.25
2022-10-15T10:37:43.077Z,96925.69
2022-10-15T10:40:58.062Z,96915.06
2022-10-15T10:44:00.091Z,96924.53
2022-10-15T10:47:18.026Z,96916.09
2022-10-15T10:50:40.779Z,96917.81
2022-10-15T10:54:05.369Z,96920.31
2022-10-15T10:57:11.712Z,96925.66
2022-10-15T11:00:24.624Z,96930.22
2022-10-15T11:03:38.683Z,96932.19
2022-10-15T11:07:04.946Z,96943.28
2022-10-15T11:10:46.702Z,96938.19
2022-10-15T11:14:17.368Z,96945.22
2022-10-15T11:17:59.285Z,96937.44
2022-10-15T11:21:35.311Z,96949.00
2022-10-15T11:25:06.975Z,96962.81
2022-10-15T11:28:51.100Z,96938.59
2022-10-15T11:32:54.440Z,96931.16
2022-10-15T11:36:29.867Z,96934.13
2022-10-15T11:39:35.300Z,96956.16
2022-10-15T11:42:58.372Z,96949.69
2022-10-15T11:46:30.171Z,96951.06
2022-10-15T11:49:41.175Z,96945.72
2022-10-15T11:53:32.361Z,96952.28
2022-10-15T11:56:53.643Z,96967.16
2022-10-15T12:00:10.056Z,96961.50
2022-10-15T12:03:24.964Z,96971.66
2022-10-15T12:06:30.457Z,96955.56
2022-10-15T12:09:37.118Z,96944.66
2022-10-15T12:13:14.847Z,96922.34
2022-10-15T12:16:35.596Z,96945.50
2022-10-15T12:20:18.270Z,96934.97
2022-10-15T12:23:37.282Z,96921.94
2022-10-15T12:26:39.426Z,96921.00
2022-10-15T12:29:41.523Z,96900.78
2022-10-15T12:32:48.711Z,96895.66
2022-10-15T12:36:01.580Z,96888.13
2022-10-15T12:39:16.080Z,96885.91
2022-10-15T12:42:37.248Z,96897.69
2022-10-15T12:45:57.628Z,96867.81
2022-10-15T12:48:59.666Z,96869.69
2022-10-15T12:52:02.443Z,96872.84
2022-10-15T12:55:28.419Z,96876.50
2022-10-15T12:58:35.128Z,96892.56
2022-10-15T13:01:43.286Z,96889.31
2022-10-15T13:04:45.612Z,96863.63
2022-10-15T13:07:47.638Z,96880.84
2022-10-15T13:10:55.335Z,96868.47
2022-10-15T13:14:32.010Z,96851.06
2022-10-15T13:17:34.704Z,96855.53
2022-10-15T13:20:38.192Z,96855.66
2022-10-15T13:23:49.083Z,96834.94
2022-10-15T13:26:51.656Z,96849.41
2022-10-15T13:30:17.345Z,96855.34
2022-10-15T13:33:19.469Z,96869.31
2022-10-15T13:36:33.134Z,96866.66
2022-10-15T13:39:39.617Z,96856.03
2022-10-15T13:42:41.677Z,96874.66
2022-10-15T13:45:48.542Z,96881.19
2022-10-15T13:48:50.581Z,96884.72
2022-10-15T13:51:53.206Z,96866.69
2022-10-15T13:54:55.219Z,96849.13
2022-10-15T13:58:04.067Z,96850.50
2022-10-15T14:01:08.914Z,96924.13
2022-10-15T14:04:19.212Z,96890.59
2022-10-15T14:07:27.655Z,96864.31
2022-10-15T14:10:30.165Z,96869.56
2022-10-15T14:13:32.267Z,96865.97
2022-10-15T14:16:45.330Z,96869.66
2022-10-15T14:20:08.235Z,96860.72
2022-10-15T14:23:20.487Z,96892.94
2022-10-15T14:26:24.355Z,96905.09
2022-10-15T14:29:28.826Z,96880.47
2022-10-15T14:32:53.887Z,96876.22
2022-10-15T14:36:19.592Z,96877.59
2022-10-15T14:39:35.710Z,96871.47
2022-10-15T14:42:44.625Z,96869.75
2022-10-15T14:45:52.684Z,96879.00
2022-10-15T14:48:54.809Z,96871.59
2022-10-15T14:52:04.727Z,96881.91
2022-10-15T14:55:33.328Z,96894.81
2022-10-15T14:58:35.408Z,96863.03
2022-10-15T15:01:37.479Z,96872.19
2022-10-15T15:05:06.895Z,96851.06
2022-10-15T15:08:09.215Z,96857.91
2022-10-15T15:11:20.923Z,96860.56
2022-10-15T15:14:26.183Z,96881.41
2022-10-15T15:17:29.511Z,96861.22
2022-10-15T15:20:31.607Z,96860.84
2022-10-15T15:23:33.724Z,96846.44
2022-10-15T15:26:35.749Z,96835.16
2022-10-15T15:29:37.784Z,96836.38
2022-10-15T15:32:39.836Z,96835.75
2022-10-15T15:35:52.454Z,96809.28
2022-10-15T15:38:58.625Z,96821.22
2022-10-15T15:42:00.645Z,96805.78
2022-10-15T15:45:02.816Z,96819.13
2022-10-15T15:48:05.318Z,96823.63
2022-10-15T15:51:27.678Z,96805.97
2022-10-15T15:54:29.722Z,96819.28
2022-10-15T15:57:31.817Z,96813.06
2022-10-15T16:00:33.900Z,96811.88
2022-10-15T16:03:36.039Z,96804.09
2022-10-15T16:06:42.357Z,96802.41
2022-10-15T16:09:44.587Z,96817.53
2022-10-15T16:12:46.648Z,96802.53
2022-10-15T16:15:48.726Z,96809.28
2022-10-15T16:18:51.028Z,96808.34
2022-10-15T16:21:53.053Z,96801.78
2022-10-15T16:24:56.617Z,96806.34
2022-10-15T16:28:01.824Z,96822.97
2022-10-15T16:31:30.360Z,96809.97
2022-10-15T16:34:32.678Z,96817.75
2022-10-15T16:37:34.818Z,96826.78
2022-10-15T16:40:37.458Z,96842.88
2022-10-15T16:43:39.556Z,96837.47
2022-10-15T16:46:41.626Z,96834.31
2022-10-15T16:49:43.677Z,96848.72
2022-10-15T16:52:46.229Z,96844.94
2022-10-15T16:55:49.838Z,96840.44
2022-10-15T16:58:52.054Z,96846.81
2022-10-15T17:01:54.592Z,96846.88
2022-10-15T17:04:56.721Z,96854.47
2022-10-15T17:07:58.799Z,96832.34
2022-10-15T17:11:00.854Z,96834.19
2022-10-15T17:14:06.311Z,96831.72
2022-10-15T17:17:08.418Z,96828.47
2022-10-15T17:20:12.091Z,96840.13
2022-10-15T17:23:14.861Z,96836.47
2022-10-15T17:26:19.573Z,96839.66
2022-10-15T17:29:25.406Z,96859.44
2022-10-15T17:32:28.631Z,96849.38
2022-10-15T17:35:31.546Z,96836.84
2022-10-15T17:38:33.612Z,96827.53
2022-10-15T17:41:35.957Z,96836.97
2022-10-15T17:44:38.028Z,96829.25
2022-10-15T17:47:40.092Z,96818.56
2022-10-15T17:50:45.255Z,96830.81
2022-10-15T17:53:50.767Z,96825.59
2022-10-15T17:56:52.848Z,96821.63
2022-10-15T17:59:54.874Z,96821.88
2022-10-15T18:02:57.936Z,96833.28
2022-10-15T18:06:13.581Z,96837.50
2022-10-15T18:09:15.687Z,96833.34
2022-10-15T18:12:17.831Z,96828.03
2022-10-15T18:15:19.907Z,96833.28
2022-10-15T18:18:22.077Z,96834.72
2022-10-15T18:21:24.986Z,96836.69
2022-10-15T18:24:27.154Z,96833.44
2022-10-15T18:27:29.180Z,96825.78
2022-10-15T18:30:31.403Z,96842.97
2022-10-15T18:33:35.281Z,96809.94
2022-10-15T18:36:41.429Z,96825.13
2022-10-15T18:39:43.500Z,96815.22
2022-10-15T18:42:47.766Z,96821.34
2022-10-15T18:45:55.238Z,96821.63
2022-10-15T18:48:57.725Z,96825.34
2022-10-15T18:52:10.617Z,96824.81
2022-10-15T18:55:23.355Z,96823.66
2022-10-15T18:58:25.449Z,96825.75
2022-10-15T19:01:39.048Z,96818.16
2022-10-15T19:04:41.247Z,96821.63
2022-10-15T19:07:43.375Z,96833.22
2022-10-15T19:10:45.518Z,96821.94
2022-10-15T19:13:47.670Z,96821.88
2022-10-15T19:16:50.024Z,96830.59
2022-10-15T19:19:52.162Z,96827.94
2022-10-15T19:22:54.287Z,96827.16
2022-10-15T19:25:57.779Z,96822.50
2022-10-15T19:28:59.970Z,96815.88
2022-10-15T19:32:03.841Z,96803.72
2022-10-15T19:35:06.679Z,96796.06
2022-10-15T19:38:08.808Z,96787.88
2022-10-15T19:41:10.919Z,96796.03
2022-10-15T19:44:14.490Z,96790.81
2022-10-15T19:47:20.389Z,96779.66
2022-10-15T19:50:22.499Z,96768.66
2022-10-15T19:53:25.588Z,96766.19
2022-10-15T19:56:28.270Z,96768.91
2022-10-15T19:59:30.374Z,96758.00
2022-10-15T20:02:32.520Z,96762.50
2022-10-15T20:05:34.608Z,96762.44
2022-10-15T20:08:36.861Z,96758.28
2022-10-15T20:11:39.002Z,96754.06
2022-10-15T20:14:41.078Z,96765.94
2022-10-15T20:17:43.464Z,96770.69
2022-10-15T20:20:46.421Z,96784.69
2022-10-15T20:23:48.563Z,96773.28
2022-10-15T20:26:51.027Z,96777.50
2022-10-15T20:29:53.130Z,96769.84
2022-10-15T20:32:55.182Z,96764.09
2022-10-15T20:36:02.905Z,96782.75
2022-10-15T20:39:04.892Z,96792.78
2022-10-15T20:42:07.600Z,96805.16
2022-10-15T20:45:14.434Z,96810.94
2022-10-15T20:48:22.267Z,96810.69
2022-10-15T20:51:27.654Z,96829.13
2022-10-15T20:54:30.844Z,96843.75
2022-10-15T20:57:32.887Z,96852.47
2022-10-15T21:00:34.919Z,96830.06
2022-10-15T21:03:37.173Z,96823.22
2022-10-15T21:06:39.446Z,96811.13
2022-10-15T21:09:41.648Z,96808.47
2022-10-15T21:12:43.742Z,96816.09
2022-10-15T21:15:45.807Z,96809.69
2022-10-15T21:18:48.341Z,96803.69
2022-10-15T21:21:50.429Z,96797.38
2022-10-15T21:24:52.474Z,96801.03
2022-10-15T21:27:54.490Z,96766.44
2022-10-15T21:30:56.534Z,96755.97
2022-10-15T21:33:58.577Z,96758.34
2022-10-15T21:37:00.613Z,96748.06
2022-10-15T21:40:03.408Z,96761.53
2022-10-15T21:43:05.658Z,96747.25
2022-10-15T21:46:12.363Z,96750.63
2022-10-15T21:49:14.413Z,96717.78
2022-10-15T21:52:16.443Z,96731.19
2022-10-15T21:55:18.480Z,96742.00
2022-10-15T21:58:22.141Z,96748.06
2022-10-15T22:01:26.465Z,96745.09
2022-10-15T22:04:29.385Z,96755.88
2022-10-15T22:07:31.389Z,96759.69
2022-10-15T22:10:35.147Z,96764.38
2022-10-15T22:13:37.294Z,96792.16
2022-10-15T22:16:40.959Z,96772.75
2022-10-15T22:19:42.994Z,96801.06
2022-10-15T22:22:45.054Z,96784.44
2022-10-15T22:25:47.310Z,96799.00
2022-10-15T22:28:49.525Z,96769.16
2022-10-15T22:31:51.796Z,96754.91
2022-10-15T22:34:53.859Z,96752.28
2022-10-15T22:37:58.064Z,96762.59
2022-10-15T22:41:01.497Z,96761.19
2022-10-15T22:44:03.610Z,96792.69
2022-10-15T22:47:05.703Z,96771.56
2022-10-15T22:50:08.594Z,96776.28
2022-10-15T22:53:10.851Z,96782.63
2022-10-15T22:56:17.857Z,96773.16
2022-10-15T22:59:20.126Z,96758.94
2022-10-15T23:02:22.230Z,96758.16
2022-10-15T23:05:24.314Z,96757.63
2022-10-15T23:08:26.329Z,96753.94
2022-10-15T23:11:31.095Z,96757.34
2022-10-15T23:14:33.124Z,96764.47
2022-10-15T23:17:35.203Z,96765.00
2022-10-15T23:20:40.338Z,96767.69
2022-10-15T23:23:43.353Z,96775.34
2022-10-15T23:26:45.474Z,96783.78
2022-10-15T23:29:53.506Z,96771.38
2022-10-15T23:33:03.985Z,96779.28
2022-10-15T23:36:06.175Z,96727.59
2022-10-15T23:39:08.202Z,96749.47
2022-10-15T23:42:10.246Z,96753.16
2022-10-15T23:45:12.255Z,96756.84
2022-10-15T23:48:14.390Z,96769.25
2022-10-15T23:51:29.247Z,96760.81
2022-10-15T23:54:31.323Z,96775.59
2022-10-15T23:57:33.352Z,96777.44
